Time;durP1;ratioP1;P1;durP2;ratioP2;P2;SDS_P1;SDS_P2;PMS_P1;PMS_P2;Temp;Humidity;BMP_temperature;BMP_pressure;BME280_temperature;BME280_humidity;BME280_pressure;Samples;Min_cycle;Max_cycle;Signal;HPM_P1;HPM_P2
2021/08/05 00:00:39;;;;;;;4.90;2.47;;;;;;;;;;5112954;28;20481;-79
2021/08/05 00:03:06;;;;;;;6.73;4.40;;;;;;;;;;5113307;28;20443;-79
2021/08/05 00:05:33;;;;;;;4.23;2.07;;;;;;;;;;5113298;28;20527;-81
2021/08/05 00:08:00;;;;;;;2.00;1.80;;;;;;;;;;5112751;28;20447;-81
2021/08/05 00:10:28;;;;;;;4.83;2.30;;;;;;;;;;5113177;28;20799;-79
2021/08/05 00:12:55;;;;;;;4.13;2.50;;;;;;;;;;5112688;28;20484;-79
2021/08/05 00:15:24;;;;;;;2.23;1.93;;;;;;;;;;5112528;28;20530;-79
2021/08/05 00:17:51;;;;;;;2.97;2.60;;;;;;;;;;5112651;28;20530;-79
2021/08/05 00:20:18;;;;;;;2.93;2.30;;;;;;;;;;5112595;28;20495;-79
2021/08/05 00:22:45;;;;;;;2.80;2.23;;;;;;;;;;5112326;28;20438;-78
2021/08/05 00:25:12;;;;;;;2.20;1.80;;;;;;;;;;5112887;28;20768;-77
2021/08/05 00:27:39;;;;;;;3.70;2.20;;;;;;;;;;5112632;28;20442;-79
2021/08/05 00:30:07;;;;;;;2.70;2.43;;;;;;;;;;5112847;28;20535;-78
2021/08/05 00:32:35;;;;;;;1.80;1.60;;;;;;;;;;5112739;28;20444;-77
2021/08/05 00:35:03;;;;;;;2.87;2.10;;;;;;;;;;5112288;28;20475;-78
2021/08/05 00:37:30;;;;;;;3.07;2.23;;;;;;;;;;5112497;28;20487;-79
2021/08/05 00:39:57;;;;;;;3.30;2.30;;;;;;;;;;5111842;28;20507;-80
2021/08/05 00:42:24;;;;;;;8.53;2.80;;;;;;;;;;5112669;28;20439;-80
2021/08/05 00:44:51;;;;;;;3.30;2.50;;;;;;;;;;5112176;28;20439;-81
2021/08/05 00:47:18;;;;;;;2.73;2.23;;;;;;;;;;5112369;28;20443;-78
2021/08/05 00:49:47;;;;;;;4.27;2.60;;;;;;;;;;5111981;28;20886;-80
2021/08/05 00:52:14;;;;;;;3.07;2.30;;;;;;;;;;5112408;28;20444;-80
2021/08/05 00:54:42;;;;;;;2.97;2.40;;;;;;;;;;5112109;28;20950;-80
2021/08/05 00:57:09;;;;;;;2.43;2.23;;;;;;;;;;5112613;28;20448;-80
2021/08/05 00:59:36;;;;;;;2.50;2.20;;;;;;;;;;5112142;28;20472;-78
2021/08/05 01:02:07;;;;;;;3.70;3.10;;;;;;;;;;5111854;28;20454;-80
2021/08/05 01:04:34;;;;;;;6.67;2.63;;;;;;;;;;5112412;28;20432;-80
2021/08/05 01:07:09;;;;;;;2.53;2.07;;;;;;;;;;5111682;28;20885;-80
2021/08/05 01:09:38;;;;;;;2.40;2.20;;;;;;;;;;5112398;28;20785;-79
2021/08/05 01:12:07;;;;;;;2.53;1.90;;;;;;;;;;5111354;28;21026;-79
2021/08/05 01:14:37;;;;;;;2.47;2.27;;;;;;;;;;5111826;28;20451;-78
2021/08/05 01:17:04;;;;;;;3.40;2.30;;;;;;;;;;5111429;28;20428;-79
2021/08/05 01:19:35;;;;;;;2.50;2.13;;;;;;;;;;5112032;28;20487;-79
2021/08/05 01:22:08;;;;;;;2.90;1.70;;;;;;;;;;5111700;28;20959;-81
2021/08/05 01:24:39;;;;;;;3.53;2.83;;;;;;;;;;5112362;28;20430;-78
2021/08/05 01:27:07;;;;;;;2.30;2.10;;;;;;;;;;5111613;28;20919;-79
2021/08/05 01:29:36;;;;;;;2.53;2.33;;;;;;;;;;5116484;28;20457;-80
2021/08/05 01:32:03;;;;;;;5.13;2.20;;;;;;;;;;5115746;28;20446;-77
2021/08/05 01:34:32;;;;;;;4.23;2.40;;;;;;;;;;5116387;28;20531;-79
2021/08/05 01:36:59;;;;;;;5.57;2.10;;;;;;;;;;5115653;28;20431;-79
2021/08/05 01:39:28;;;;;;;2.77;1.97;;;;;;;;;;5116253;28;20439;-76
2021/08/05 01:41:56;;;;;;;2.20;2.00;;;;;;;;;;5115507;28;20776;-82
2021/08/05 01:44:25;;;;;;;3.37;2.43;;;;;;;;;;5116940;28;20543;-79
2021/08/05 01:46:52;;;;;;;3.70;2.07;;;;;;;;;;5116305;28;20975;-80
2021/08/05 01:49:20;;;;;;;4.47;2.30;;;;;;;;;;5117135;28;20505;-80
2021/08/05 01:51:48;;;;;;;2.80;2.57;;;;;;;;;;5122222;28;20532;-79
2021/08/05 01:54:15;;;;;;;6.90;3.83;;;;;;;;;;5116127;28;20485;-78
2021/08/05 01:56:43;;;;;;;5.03;2.63;;;;;;;;;;5115988;28;20523;-78
2021/08/05 01:59:10;;;;;;;4.77;3.17;;;;;;;;;;5115571;28;20444;-79
2021/08/05 02:01:38;;;;;;;3.83;3.03;;;;;;;;;;5115419;28;20475;-79
2021/08/05 02:04:15;;;;;;;3.90;2.73;;;;;;;;;;5115269;28;20701;-80
2021/08/05 02:06:55;;;;;;;4.00;3.03;;;;;;;;;;5115922;28;20515;-81
2021/08/05 02:09:25;;;;;;;3.33;2.47;;;;;;;;;;5115340;28;21004;-78
2021/08/05 02:11:53;;;;;;;3.03;2.43;;;;;;;;;;5115620;28;20420;-80
2021/08/05 02:14:22;;;;;;;5.20;2.03;;;;;;;;;;5115405;28;20936;-81
2021/08/05 02:16:50;;;;;;;2.50;2.13;;;;;;;;;;5114795;28;20535;-78
2021/08/05 02:19:18;;;;;;;2.97;2.63;;;;;;;;;;5115385;28;20439;-79
2021/08/05 02:21:45;;;;;;;3.03;1.80;;;;;;;;;;5113945;28;20517;-80
2021/08/05 02:24:14;;;;;;;2.60;2.13;;;;;;;;;;5114099;28;20436;-80
2021/08/05 02:26:42;;;;;;;6.20;2.50;;;;;;;;;;5114282;28;20525;-79
2021/08/05 02:29:10;;;;;;;2.40;2.10;;;;;;;;;;5113461;28;20448;-78
2021/08/05 02:31:37;;;;;;;2.60;2.10;;;;;;;;;;5114008;28;20870;-79
2021/08/05 02:34:06;;;;;;;2.97;2.47;;;;;;;;;;5113182;28;20814;-79
2021/08/05 02:36:34;;;;;;;3.33;2.60;;;;;;;;;;5114074;28;20614;-80
2021/08/05 02:39:01;;;;;;;3.10;2.83;;;;;;;;;;5112938;28;20436;-79
2021/08/05 02:41:29;;;;;;;2.73;2.53;;;;;;;;;;5113660;28;20497;-77
2021/08/05 02:43:56;;;;;;;2.83;2.30;;;;;;;;;;5113177;28;20525;-79
2021/08/05 02:46:24;;;;;;;2.60;2.40;;;;;;;;;;5113842;28;20530;-78
2021/08/05 02:48:52;;;;;;;3.30;2.23;;;;;;;;;;5113486;28;20481;-80
2021/08/05 02:51:21;;;;;;;5.37;2.57;;;;;;;;;;5113222;28;20451;-80
2021/08/05 02:53:48;;;;;;;2.80;2.30;;;;;;;;;;5113158;28;20443;-80
2021/08/05 02:56:16;;;;;;;3.90;2.40;;;;;;;;;;5113743;28;20457;-80
2021/08/05 02:58:43;;;;;;;2.50;2.30;;;;;;;;;;5113394;28;20435;-80
2021/08/05 03:01:10;;;;;;;4.17;2.67;;;;;;;;;;5113336;28;20566;-79
2021/08/05 03:03:38;;;;;;;3.37;2.90;;;;;;;;;;5113910;28;20534;-80
2021/08/05 03:06:05;;;;;;;2.80;2.60;;;;;;;;;;5113465;28;20444;-80
2021/08/05 03:08:39;;;;;;;3.37;3.07;;;;;;;;;;5116663;28;20943;-78
2021/08/05 03:11:06;;;;;;;5.17;3.07;;;;;;;;;;5127253;28;20439;-77
2021/08/05 03:13:34;;;;;;;2.83;2.40;;;;;;;;;;5124486;28;20523;-78
2021/08/05 03:16:01;;;;;;;3.70;2.90;;;;;;;;;;5119125;28;20467;-77
2021/08/05 03:18:28;;;;;;;3.83;2.50;;;;;;;;;;5135326;28;20523;-76
2021/08/05 03:20:55;;;;;;;4.33;2.90;;;;;;;;;;5090801;28;1126397;-79
2021/08/05 03:23:22;;;;;;;3.20;2.90;;;;;;;;;;5116843;28;20662;-79
2021/08/05 03:25:51;;;;;;;5.03;2.90;;;;;;;;;;5115013;28;21036;-77
2021/08/05 03:28:18;;;;;;;3.70;2.20;;;;;;;;;;5114196;28;20448;-78
2021/08/05 03:30:45;;;;;;;3.80;2.50;;;;;;;;;;5114000;28;20447;-78
2021/08/05 03:33:12;;;;;;;2.87;2.57;;;;;;;;;;5113005;28;20597;-78
2021/08/05 03:35:39;;;;;;;2.70;2.33;;;;;;;;;;5114098;28;20444;-78
2021/08/05 03:38:07;;;;;;;4.03;2.70;;;;;;;;;;5113221;28;20444;-79
2021/08/05 03:40:34;;;;;;;3.20;2.90;;;;;;;;;;5113475;28;20485;-78
2021/08/05 03:43:02;;;;;;;3.50;2.87;;;;;;;;;;5113262;28;20446;-79
2021/08/05 03:45:29;;;;;;;3.63;2.83;;;;;;;;;;5113455;28;20932;-79
2021/08/05 03:47:57;;;;;;;6.63;2.90;;;;;;;;;;5112812;28;20961;-79
2021/08/05 03:50:24;;;;;;;3.60;3.27;;;;;;;;;;5112906;28;20908;-79
2021/08/05 03:52:51;;;;;;;4.00;3.23;;;;;;;;;;5113256;28;20538;-78
2021/08/05 03:55:18;;;;;;;6.10;3.03;;;;;;;;;;5113215;28;20931;-79
2021/08/05 03:57:47;;;;;;;4.43;3.23;;;;;;;;;;5113543;28;20549;-79
2021/08/05 04:00:17;;;;;;;2.97;2.70;;;;;;;;;;5112416;28;21022;-79
2021/08/05 04:02:44;;;;;;;4.47;2.50;;;;;;;;;;5113404;28;20424;-79
2021/08/05 04:05:12;;;;;;;3.03;2.73;;;;;;;;;;5112881;28;20528;-79
2021/08/05 04:07:39;;;;;;;4.33;3.20;;;;;;;;;;5112833;28;20936;-80
2021/08/05 04:10:07;;;;;;;3.43;2.53;;;;;;;;;;5112230;28;20450;-79
2021/08/05 04:12:34;;;;;;;4.67;3.20;;;;;;;;;;5113429;28;20436;-79
2021/08/05 04:15:01;;;;;;;4.30;3.40;;;;;;;;;;5112582;28;20523;-78
2021/08/05 04:17:30;;;;;;;3.80;2.80;;;;;;;;;;5113086;28;20498;-79
2021/08/05 04:19:57;;;;;;;3.50;3.20;;;;;;;;;;5112514;28;20542;-79
2021/08/05 04:22:24;;;;;;;4.73;2.43;;;;;;;;;;5112864;28;20472;-79
2021/08/05 04:24:51;;;;;;;4.53;2.77;;;;;;;;;;5113030;28;20526;-80
2021/08/05 04:27:19;;;;;;;4.33;2.93;;;;;;;;;;5112179;28;20499;-79
2021/08/05 04:29:46;;;;;;;4.83;3.83;;;;;;;;;;5112434;28;20447;-79
2021/08/05 04:32:13;;;;;;;6.23;3.13;;;;;;;;;;5111709;28;20530;-78
2021/08/05 04:34:41;;;;;;;3.80;3.00;;;;;;;;;;5112464;28;20446;-79
2021/08/05 04:37:08;;;;;;;5.80;3.30;;;;;;;;;;5111687;28;21012;-79
2021/08/05 04:39:36;;;;;;;3.77;2.93;;;;;;;;;;5112577;28;20435;-79
2021/08/05 04:42:04;;;;;;;4.47;3.27;;;;;;;;;;5111672;28;21015;-79
2021/08/05 04:44:31;;;;;;;4.80;3.07;;;;;;;;;;5112423;28;20508;-79
2021/08/05 04:46:58;;;;;;;3.13;2.83;;;;;;;;;;5111652;28;20949;-79
2021/08/05 04:49:25;;;;;;;3.80;3.40;;;;;;;;;;5112415;28;20454;-79
2021/08/05 04:51:54;;;;;;;3.50;2.57;;;;;;;;;;5112604;28;20567;-79
2021/08/05 04:54:21;;;;;;;7.73;4.20;;;;;;;;;;5112356;28;20436;-79
2021/08/05 04:56:48;;;;;;;5.23;3.00;;;;;;;;;;5111940;28;20819;-79
2021/08/05 04:59:16;;;;;;;6.20;3.27;;;;;;;;;;5111448;28;20936;-79
2021/08/05 05:01:43;;;;;;;3.90;3.17;;;;;;;;;;5112160;28;20475;-79
2021/08/05 05:04:11;;;;;;;3.73;3.33;;;;;;;;;;5111615;28;20932;-79
2021/08/05 05:06:38;;;;;;;3.90;3.50;;;;;;;;;;5112177;28;20446;-81
2021/08/05 05:09:07;;;;;;;7.33;4.10;;;;;;;;;;5111686;28;20449;-79
2021/08/05 05:11:34;;;;;;;5.70;4.00;;;;;;;;;;5111958;28;20450;-79
2021/08/05 05:14:01;;;;;;;5.10;4.33;;;;;;;;;;5111629;28;20440;-80
2021/08/05 05:16:28;;;;;;;7.87;3.30;;;;;;;;;;5112107;28;20945;-79
2021/08/05 05:18:55;;;;;;;3.57;3.13;;;;;;;;;;5112142;28;20443;-80
2021/08/05 05:21:23;;;;;;;4.17;3.77;;;;;;;;;;5111885;28;20586;-79
2021/08/05 05:23:50;;;;;;;4.37;3.97;;;;;;;;;;5112174;28;20475;-78
2021/08/05 05:26:19;;;;;;;4.97;3.60;;;;;;;;;;5111460;28;20451;-82
2021/08/05 05:28:46;;;;;;;4.90;3.50;;;;;;;;;;5112036;28;20469;-80
2021/08/05 05:31:13;;;;;;;5.00;3.17;;;;;;;;;;5111320;28;20539;-80
2021/08/05 05:33:40;;;;;;;3.87;3.37;;;;;;;;;;5112021;28;20446;-79
2021/08/05 05:36:07;;;;;;;4.00;3.60;;;;;;;;;;5111753;28;20448;-80
2021/08/05 05:38:34;;;;;;;5.60;3.57;;;;;;;;;;5112285;28;20521;-80
2021/08/05 05:41:01;;;;;;;3.10;2.80;;;;;;;;;;5111576;28;20497;-79
2021/08/05 05:43:30;;;;;;;5.80;4.00;;;;;;;;;;5111851;28;20444;-81
2021/08/05 05:45:57;;;;;;;4.27;3.50;;;;;;;;;;5112299;28;20527;-81
2021/08/05 05:48:24;;;;;;;5.70;3.97;;;;;;;;;;5111824;28;20932;-79
2021/08/05 05:50:51;;;;;;;5.30;3.73;;;;;;;;;;5112011;28;20448;-79
2021/08/05 05:53:19;;;;;;;5.77;3.27;;;;;;;;;;5111434;28;20531;-81
2021/08/05 05:55:46;;;;;;;4.60;3.20;;;;;;;;;;5111593;28;20535;-81
2021/08/05 05:58:13;;;;;;;4.30;3.30;;;;;;;;;;5111201;28;20535;-80
2021/08/05 06:00:41;;;;;;;3.63;3.23;;;;;;;;;;5111704;28;20443;-80
2021/08/05 06:03:08;;;;;;;3.70;3.40;;;;;;;;;;5111563;28;20522;-80
2021/08/05 06:05:36;;;;;;;3.50;3.20;;;;;;;;;;5112028;28;20531;-81
2021/08/05 06:08:03;;;;;;;20.43;4.17;;;;;;;;;;5111284;28;20472;-81
2021/08/05 06:10:30;;;;;;;3.87;3.50;;;;;;;;;;5112296;28;20552;-81
2021/08/05 06:12:57;;;;;;;6.27;3.50;;;;;;;;;;5111847;28;20530;-81
2021/08/05 06:15:24;;;;;;;3.80;3.40;;;;;;;;;;5115123;28;20806;-81
2021/08/05 06:17:53;;;;;;;4.70;3.13;;;;;;;;;;5115524;28;20440;-81
2021/08/05 06:20:21;;;;;;;5.10;2.70;;;;;;;;;;5114887;28;20912;-81
2021/08/05 06:22:48;;;;;;;3.70;3.10;;;;;;;;;;5115247;28;20456;-81
2021/08/05 06:25:16;;;;;;;3.77;3.10;;;;;;;;;;5114329;28;20443;-80
2021/08/05 06:27:43;;;;;;;3.13;2.80;;;;;;;;;;5115553;28;20522;-81
2021/08/05 06:30:11;;;;;;;5.70;3.00;;;;;;;;;;5114701;28;20432;-80
2021/08/05 06:32:38;;;;;;;2.93;2.50;;;;;;;;;;5115641;28;20520;-81
2021/08/05 06:35:07;;;;;;;3.00;2.70;;;;;;;;;;5114466;28;20504;-81
2021/08/05 06:37:35;;;;;;;3.47;2.30;;;17.60;99.90;;;;;;5115319;28;20528;-81
2021/08/05 06:40:04;;;;;;;4.87;3.33;;;17.50;99.90;;;;;;5117796;27;20556;-72
2021/08/05 06:42:32;;;;;;;2.90;2.30;;;17.60;99.90;;;;;;5115383;27;20501;-80
2021/08/05 06:44:58;;;;;;;4.87;3.23;;;17.70;99.90;;;;;;5115070;28;20446;-81
2021/08/05 06:47:25;;;;;;;3.80;2.80;;;17.80;99.90;;;;;;5114626;28;20537;-80
2021/08/05 06:49:52;;;;;;;2.63;2.43;;;18.00;1.00;;;;;;5115052;28;20454;-78
2021/08/05 06:52:21;;;;;;;4.67;3.83;;;18.00;1.00;;;;;;5114219;28;20544;-80
2021/08/05 06:54:48;;;;;;;3.10;2.57;;;18.20;1.00;;;;;;5114753;28;20443;-81
2021/08/05 06:57:15;;;;;;;3.60;2.57;;;18.10;1.00;;;;;;5114002;28;20439;-80
2021/08/05 06:59:41;;;;;;;6.23;3.10;;;18.10;1.00;;;;;;5114405;28;20470;-80
2021/08/05 07:02:09;;;;;;;2.77;2.30;;;18.10;1.00;;;;;;5113921;28;20901;-80
2021/08/05 07:04:36;;;;;;;4.20;2.40;;;18.30;99.90;;;;;;5114534;28;20448;-80
2021/08/05 07:07:04;;;;;;;3.10;2.50;;;;;;;;;;5114811;28;20525;-73
2021/08/05 07:09:33;;;;;;;3.30;2.87;;;;;;;;;;5115030;28;20447;-80
2021/08/05 07:12:00;;;;;;;3.13;2.30;;;;;;;;;;5134004;28;20499;-79
2021/08/05 07:14:27;;;;;;;5.50;2.47;;;;;;;;;;5137611;28;20443;-79
2021/08/05 07:16:54;;;;;;;2.60;2.10;;;;;;;;;;5115919;28;20458;-79
2021/08/05 07:19:22;;;;;;;4.00;2.03;;;;;;;;;;5127652;28;20495;-78
2021/08/05 07:21:49;;;;;;;4.23;2.40;;;;;;;;;;5138447;28;20467;-77
2021/08/05 07:24:16;;;;;;;3.27;2.30;;;;;;;;;;5137312;28;20428;-80
2021/08/05 07:26:45;;;;;;;2.50;2.30;;;;;;;;;;5114606;28;20443;-79
2021/08/05 07:29:12;;;;;;;2.37;2.17;;;;;;;;;;5114006;28;20436;-78
2021/08/05 07:31:39;;;;;;;2.53;1.93;;;;;;;;;;5114342;28;20874;-80
2021/08/05 07:34:06;;;;;;;4.10;3.00;;;;;;;;;;5113790;28;20526;-79
2021/08/05 07:36:33;;;;;;;2.73;2.37;;;;;;;;;;5113881;28;20934;-80
2021/08/05 07:39:01;;;;;;;2.87;2.13;;;;;;;;;;5113730;28;20442;-79
2021/08/05 07:41:28;;;;;;;2.87;2.30;;;;;;;;;;5113205;28;20887;-80
2021/08/05 07:43:56;;;;;;;5.20;2.00;;;;;;;;;;5113806;28;20526;-80
2021/08/05 07:46:24;;;;;;;2.90;2.20;;;;;;;;;;5113060;28;20442;-78
2021/08/05 07:48:51;;;;;;;2.83;2.50;;;;;;;;;;5113585;28;20518;-79
2021/08/05 07:51:18;;;;;;;2.93;2.40;;;;;;;;;;5113184;28;20452;-79
2021/08/05 07:53:45;;;;;;;4.00;2.40;;;;;;;;;;5113620;28;20442;-79
2021/08/05 07:56:12;;;;;;;3.27;2.00;;;;;;;;;;5112818;28;20522;-79
2021/08/05 07:58:39;;;;;;;2.80;2.30;;;;;;;;;;5113480;28;20439;-80
2021/08/05 08:01:08;;;;;;;2.70;2.43;;;;;;;;;;5113540;28;20482;-78
2021/08/05 08:03:35;;;;;;;21.07;3.63;;;;;;;;;;5113009;28;20558;-79
2021/08/05 08:06:02;;;;;;;3.00;2.20;;;;;;;;;;5112926;28;20446;-80
2021/08/05 08:08:29;;;;;;;5.50;2.23;;;;;;;;;;5112764;28;20446;-81
2021/08/05 08:10:56;;;;;;;2.23;2.03;;;;;;;;;;5113270;28;20485;-79
2021/08/05 08:13:24;;;;;;;3.40;2.50;;;;;;;;;;5112509;28;20538;-79
2021/08/05 08:15:51;;;;;;;3.50;2.40;;;;;;;;;;5112913;28;21011;-79
2021/08/05 08:18:19;;;;;;;2.30;2.10;;;;;;;;;;5112476;28;20471;-80
2021/08/05 08:20:47;;;;;;;3.70;3.10;;;;;;;;;;5113014;28;20555;-79
2021/08/05 08:23:14;;;;;;;3.00;2.47;;;;;;;;;;5112259;28;20483;-79
2021/08/05 08:25:41;;;;;;;2.23;2.00;;;;;;;;;;5112983;28;20543;-80
2021/08/05 08:28:09;;;;;;;3.20;2.37;;;;;;;;;;5112594;28;20440;-80
2021/08/05 08:30:36;;;;;;;2.70;2.50;;;;;;;;;;5113154;28;20453;-81
2021/08/05 08:33:03;;;;;;;3.70;2.60;;;;;;;;;;5113080;28;20805;-81
2021/08/05 08:35:32;;;;;;;3.03;2.60;;;;;;;;;;5112629;28;20435;-80
2021/08/05 08:37:59;;;;;;;4.23;2.70;;;;;;;;;;5112775;28;20438;-81
2021/08/05 08:40:27;;;;;;;2.17;1.97;;;;;;;;;;5112339;28;20526;-80
2021/08/05 08:42:54;;;;;;;2.70;2.20;;;;;;;;;;5112481;28;20930;-81
2021/08/05 08:45:21;;;;;;;5.60;2.20;;;;;;;;;;5112100;28;20444;-81
2021/08/05 08:47:53;;;;;;;2.93;2.10;;;;;;;;;;5112638;28;20522;-80
2021/08/05 08:50:20;;;;;;;3.63;2.23;;;;;;;;;;5111674;28;20813;-78
2021/08/05 08:52:48;;;;;;;3.67;1.80;;;;;;;;;;5112607;28;20475;-80
2021/08/05 08:55:16;;;;;;;3.93;2.10;;;;;;;;;;5111921;28;20523;-79
2021/08/05 08:57:44;;;;;;;2.10;1.90;;;;;;;;;;5112310;28;20443;-79
2021/08/05 09:00:12;;;;;;;2.30;2.10;;;;;;;;;;5111622;28;20439;-76
2021/08/05 09:02:39;;;;;;;2.03;1.83;;;;;;;;;;5112172;28;20471;-80
2021/08/05 09:05:07;;;;;;;4.27;1.60;;;;;;;;;;5112101;28;20489;-80
2021/08/05 09:07:34;;;;;;;3.60;2.00;;;18.30;99.90;;;;;;5111607;28;20765;-79
2021/08/05 09:10:03;;;;;;;2.23;1.93;;;20.30;1.00;;;;;;5112362;28;20526;-80
2021/08/05 09:12:30;;;;;;;3.03;2.33;;;20.50;1.00;;;;;;5111362;28;20448;-79
2021/08/05 09:14:57;;;;;;;3.10;2.03;;;20.40;1.00;;;;;;5112087;28;20801;-80
2021/08/05 09:17:26;;;;;;;2.73;2.30;;;20.60;99.90;;;;;;5111769;28;20523;-79
2021/08/05 09:19:55;;;;;;;2.30;2.10;;;20.80;99.90;;;;;;5112135;28;20470;-80
2021/08/05 09:22:40;;;;;;;3.00;1.90;;;20.80;99.90;;;;;;5111775;28;20579;-80
2021/08/05 09:25:32;;;;;;;2.40;2.20;;;20.70;99.90;;;;;;5112076;28;20435;-79
2021/08/05 09:28:01;;;;;;;2.17;1.97;;;20.70;99.90;;;;;;5111935;28;20432;-80
2021/08/05 09:30:31;;;;;;;2.23;1.83;;;20.90;99.90;;;;;;5111188;28;20439;-80
2021/08/05 09:33:06;;;;;;;4.63;2.03;;;21.00;99.90;;;;;;5112256;28;20471;-81
2021/08/05 09:35:33;;;;;;;2.77;1.80;;;20.90;6.00;;;;;;5111807;28;20431;-80
2021/08/05 09:38:25;;;;;;;2.87;2.00;;;21.10;1.00;;;;;;5112259;28;20526;-80
2021/08/05 09:41:06;;;;;;;1.90;1.77;;;21.20;1.00;;;;;;5112047;28;20531;-78
2021/08/05 09:43:33;;;;;;;3.90;1.90;;;21.60;1.00;;;;;;5111334;28;21450;-80
2021/08/05 09:46:00;;;;;;;1.83;1.70;;;21.70;1.00;;;;;;5111940;28;20912;-80
2021/08/05 09:48:34;;;;;;;1.73;1.63;;;;;;;;;;5112311;28;20526;-80
2021/08/05 09:51:09;;;;;;;2.00;1.47;;;;;;;;;;5115613;28;20457;-79
2021/08/05 09:53:36;;;;;;;1.63;1.33;;;;;;;;;;5115269;28;20498;-81
2021/08/05 09:56:12;;;;;;;2.10;1.90;;;;;;;;;;5115677;28;20435;-80
2021/08/05 09:58:40;;;;;;;1.60;1.43;;;;;;;;;;5115479;28;20907;-80
2021/08/05 10:01:08;;;;;;;1.90;1.50;;;;;;;;;;5115672;28;20439;-79
2021/08/05 10:03:35;;;;;;;3.57;1.73;;;;;;;;;;5115071;28;20471;-80
2021/08/05 10:06:03;;;;;;;2.10;1.53;;;;;;;;;;5115585;28;20435;-80
2021/08/05 10:08:34;;;;;;;2.43;1.50;;;;;;;;;;5115019;28;20526;-80
2021/08/05 10:11:02;;;;;;;2.13;1.57;;;;;;;;;;5115654;28;20449;-80
2021/08/05 10:13:31;;;;;;;2.03;1.70;;;;;;;;;;5115116;28;20431;-78
2021/08/05 10:15:58;;;;;;;1.50;1.40;;;;;;;;;;5115345;28;20444;-81
2021/08/05 10:18:29;;;;;;;1.67;1.57;;;;;;;;;;5114983;28;20531;-79
2021/08/05 10:20:57;;;;;;;2.97;1.50;;;;;;;;;;5115293;28;20467;-80
2021/08/05 10:23:25;;;;;;;2.43;1.50;;;;;;;;;;5114756;28;20483;-80
2021/08/05 10:25:53;;;;;;;2.10;1.37;;;;;;;;;;5115680;28;20447;-80
2021/08/05 10:28:20;;;;;;;1.20;1.10;;;;;;;;;;5114686;28;21010;-80
2021/08/05 10:30:49;;;;;;;2.00;1.43;;;;;;;;;;5115339;28;20546;-80
2021/08/05 10:33:16;;;;;;;2.27;1.60;;;;;;;;;;5114957;28;20463;-77
2021/08/05 10:35:47;;;;;;;1.67;1.57;;;;;;;;;;5115539;28;20436;-80
2021/08/05 10:38:15;;;;;;;1.40;1.13;;;;;;;;;;5115578;28;20492;-80
2021/08/05 10:40:42;;;;;;;1.40;1.10;;;;;;;;;;5115443;28;20463;-80
2021/08/05 10:43:09;;;;;;;1.67;0.93;;;;;;;;;;5126445;28;20476;-80
2021/08/05 10:45:37;;;;;;;1.30;1.20;;;;;;;;;;5114658;28;20689;-80
2021/08/05 10:48:06;;;;;;;1.50;1.37;;;;;;;;;;5115113;28;21027;-81
2021/08/05 10:50:40;;;;;;;1.57;1.47;;;;;;;;;;5114340;28;20967;-81
2021/08/05 10:53:07;;;;;;;3.50;1.80;;;;;;;;;;5114847;28;20924;-80
2021/08/05 10:55:35;;;;;;;1.20;1.10;;;;;;;;;;5114193;28;20435;-79
2021/08/05 10:58:10;;;;;;;3.40;1.30;;;;;;;;;;5114805;28;20515;-80
2021/08/05 11:00:53;;;;;;;3.87;1.30;;;;;;;;;;5113942;28;20687;-79
2021/08/05 11:03:44;;;;;;;1.27;1.17;;;;;;;;;;5113996;28;20538;-80
2021/08/05 11:06:26;;;;;;;1.40;1.10;;;;;;;;;;5114444;28;20428;-80
2021/08/05 11:08:53;;;;;;;2.80;1.40;;;;;;;;;;5114542;28;20518;-80
2021/08/05 11:11:31;;;;;;;2.73;1.03;;;;;;;;;;5116263;28;20435;-80
2021/08/05 11:14:17;;;;;;;1.63;1.53;;;;;;;;;;5125428;28;20836;-79
2021/08/05 11:17:01;;;;;;;1.43;1.33;;;;;;;;;;5125482;28;20483;-77
2021/08/05 11:19:31;;;;;;;1.40;1.30;;;;;;;;;;5135289;28;20444;-81
2021/08/05 11:21:58;;;;;;;1.57;1.47;;;;;;;;;;5120625;28;20455;-80
2021/08/05 11:24:44;;;;;;;1.17;1.07;;;;;;;;;;5126801;28;20547;-76
2021/08/05 11:27:11;;;;;;;1.20;0.90;;;;;;;;;;5136566;28;20488;-76
2021/08/05 11:29:38;;;;;;;1.90;1.20;;;;;;;;;;5131776;28;20530;-80
2021/08/05 11:32:20;;;;;;;1.50;1.40;;;;;;;;;;5115520;28;20434;-80
2021/08/05 11:34:56;;;;;;;1.63;1.10;;;;;;;;;;5114458;28;20439;-79
2021/08/05 11:37:23;;;;;;;1.80;1.40;;;;;;;;;;5114015;28;20431;-80
2021/08/05 11:39:51;;;;;;;2.70;2.17;;;;;;;;;;5113925;28;20471;-80
2021/08/05 11:42:19;;;;;;;2.23;1.70;;;;;;;;;;5113681;28;20446;-80
2021/08/05 11:44:48;;;;;;;2.40;1.30;;;;;;;;;;5114043;28;20502;-78
2021/08/05 11:47:27;;;;;;;1.10;1.00;;;;;;;;;;5113752;28;20758;-80
2021/08/05 11:49:58;;;;;;;1.40;1.23;;;;;;;;;;5113611;28;20443;-80
2021/08/05 11:52:32;;;;;;;1.60;1.50;;;;;;;;;;5113243;28;20530;-80
2021/08/05 11:55:00;;;;;;;1.67;1.53;;;;;;;;;;5113387;28;20422;-80
2021/08/05 11:57:28;;;;;;;1.10;1.00;;;;;;;;;;5112962;28;20884;-80
2021/08/05 11:59:57;;;;;;;2.00;1.80;;;;;;;;;;5113308;28;20778;-80
2021/08/05 12:02:25;;;;;;;1.43;1.33;;;;;;;;;;5112624;28;20436;-80
2021/08/05 12:04:53;;;;;;;3.83;1.43;;;;;;;;;;5113078;28;20471;-81
2021/08/05 12:07:29;;;;;;;1.60;1.50;;;;;;;;;;5113207;28;20438;-80
2021/08/05 12:10:00;;;;;;;1.60;1.23;;;;;;;;;;5113586;28;20477;-80
2021/08/05 12:12:28;;;;;;;2.47;1.20;;;;;;;;;;5112128;28;20918;-80
2021/08/05 12:14:57;;;;;;;1.50;1.40;;;;;;;;;;5113427;28;20478;-80
2021/08/05 12:17:31;;;;;;;1.80;1.60;;;;;;;;;;5112553;28;20526;-79
2021/08/05 12:19:58;;;;;;;2.00;1.50;;;;;;;;;;5113263;28;20436;-79
2021/08/05 12:22:36;;;;;;;1.63;1.53;;;;;;;;;;5112277;28;20436;-80
2021/08/05 12:25:07;;;;;;;1.67;1.37;;;;;;;;;;5113543;28;20554;-79
2021/08/05 12:27:34;;;;;;;1.20;1.10;;;;;;;;;;5112537;28;20428;-80
2021/08/05 12:30:06;;;;;;;2.00;1.40;;;;;;;;;;5112714;28;20555;-80
2021/08/05 12:32:33;;;;;;;1.40;1.20;;;;;;;;;;5112148;28;20428;-80
2021/08/05 12:35:00;;;;;;;4.00;1.67;;;;;;;;;;5112709;28;20439;-80
2021/08/05 12:37:28;;;;;;;1.23;1.13;;;;;;;;;;5112333;28;20428;-79
2021/08/05 12:40:08;;;;;;;1.17;0.90;;;;;;;;;;5113005;28;20522;-80
2021/08/05 12:42:35;;;;;;;2.80;1.33;;;;;;;;;;5112474;28;20515;-80
2021/08/05 12:45:02;;;;;;;1.03;0.93;;;;;;;;;;5112867;28;20475;-80
2021/08/05 12:47:29;;;;;;;0.90;0.80;;;;;;;;;;5112238;28;20436;-79
2021/08/05 12:49:57;;;;;;;1.63;1.10;;;;;;;;;;5112593;28;20530;-80
2021/08/05 12:52:24;;;;;;;1.67;1.20;;;;;;;;;;5112742;28;20440;-79
2021/08/05 12:54:58;;;;;;;1.30;1.10;;;;;;;;;;5112541;28;20903;-79
2021/08/05 12:57:25;;;;;;;1.17;1.07;;;;;;;;;;5112066;28;20407;-74
2021/08/05 12:59:57;;;;;;;1.50;1.30;;;;;;;;;;5112789;28;20765;-80
2021/08/05 13:02:24;;;;;;;2.10;1.10;;;;;;;;;;5112655;28;20424;-79
2021/08/05 13:04:51;;;;;;;1.20;1.10;;;;;;;;;;5112162;28;20962;-79
2021/08/05 13:07:18;;;;;;;1.10;1.00;;;;;;;;;;5112460;28;20934;-79
2021/08/05 13:09:52;;;;;;;1.43;1.30;;;;;;;;;;5112009;28;20762;-79
2021/08/05 13:12:25;;;;;;;2.90;1.70;;;;;;;;;;5112512;28;20504;-80
2021/08/05 13:14:54;;;;;;;3.40;1.80;;;;;;;;;;5112643;28;20427;-78
2021/08/05 13:17:22;;;;;;;1.70;1.20;;;;;;;;;;5112601;28;20427;-79
2021/08/05 13:19:56;;;;;;;1.50;1.30;;;;;;;;;;5111487;28;20484;-79
2021/08/05 13:22:37;;;;;;;1.53;1.23;;;;;;;;;;5113053;28;20426;-79
2021/08/05 13:25:05;;;;;;;1.20;1.07;;;;;;;;;;5116286;28;20507;-79
2021/08/05 13:27:33;;;;;;;1.67;1.13;;;;;;;;;;5115958;28;20427;-79
2021/08/05 13:30:01;;;;;;;1.60;1.40;;;;;;;;;;5116630;28;20518;-79
2021/08/05 13:32:30;;;;;;;2.13;1.50;;;;;;;;;;5115418;28;20427;-79
2021/08/05 13:35:07;;;;;;;1.73;1.50;;;;;;;;;;5116393;28;20868;-80
2021/08/05 13:37:36;;;;;;;1.30;1.20;;;;;;;;;;5115459;28;20506;-79
2021/08/05 13:40:04;;;;;;;1.23;1.13;;;;;;;;;;5116048;28;21003;-80
2021/08/05 13:42:31;;;;;;;1.50;1.13;;;;;;;;;;5115466;28;20435;-80
2021/08/05 13:45:01;;;;;;;1.30;1.20;;;;;;;;;;5116083;28;20992;-79
2021/08/05 13:47:28;;;;;;;1.23;1.00;;;;;;;;;;5115628;28;20535;-74
2021/08/05 13:49:55;;;;;;;2.53;1.10;;;;;;;;;;5115791;28;20805;-79
2021/08/05 13:52:22;;;;;;;1.00;0.90;;;;;;;;;;5116054;28;20536;-79
2021/08/05 13:54:49;;;;;;;1.23;1.10;;;;;;;;;;5115446;28;20534;-78
2021/08/05 13:57:17;;;;;;;1.40;1.20;;;;;;;;;;5115819;28;20806;-79
2021/08/05 13:59:44;;;;;;;0.80;0.80;;;;;;;;;;5114841;28;20538;-80
2021/08/05 14:02:13;;;;;;;1.00;0.70;;;;;;;;;;5115178;28;20496;-78
2021/08/05 14:04:40;;;;;;;0.80;0.80;;;;;;;;;;5114700;28;20477;-79
2021/08/05 14:07:09;;;;;;;1.50;1.40;;;;;;;;;;5115403;28;20443;-80
2021/08/05 14:09:36;;;;;;;1.10;0.90;;;;;;;;;;5114901;28;20501;-79
2021/08/05 14:12:07;;;;;;;2.30;1.40;;;;;;;;;;5115487;28;20535;-80
2021/08/05 14:14:34;;;;;;;2.00;1.30;;;;;;;;;;5114969;28;20470;-80
2021/08/05 14:17:01;;;;;;;1.50;1.07;;;;;;;;;;5115361;28;20535;-80
2021/08/05 14:19:30;;;;;;;1.50;0.83;;;;;;;;;;5115161;28;20455;-80
2021/08/05 14:21:57;;;;;;;2.20;1.60;;;;;;;;;;5115519;28;20830;-80
2021/08/05 14:24:24;;;;;;;1.30;1.20;;;;;;;;;;5115317;28;20483;-80
2021/08/05 14:26:53;;;;;;;1.10;1.00;;;;;;;;;;5114674;28;20432;-80
2021/08/05 14:29:20;;;;;;;2.67;1.27;;;;;;;;;;5114871;28;20939;-79
2021/08/05 14:31:47;;;;;;;2.20;1.47;;;;;;;;;;5114681;28;20431;-80
2021/08/05 14:34:15;;;;;;;1.27;1.17;;;;;;;;;;5114705;28;20477;-80
2021/08/05 14:36:43;;;;;;;1.53;0.93;;;;;;;;;;5114707;28;20534;-79
2021/08/05 14:39:10;;;;;;;1.43;1.33;;;;;;;;;;5115096;28;20543;-80
2021/08/05 14:41:38;;;;;;;1.30;1.20;;;;;;;;;;5114671;28;20472;-80